sensor_id;sensor_type;location;lat;lon;timestamp;temperature;humidity
30764;DHT22;17497;51.476;7.770;2023-07-13T00:01:53;18.10;99.90
30764;DHT22;17497;51.476;7.770;2023-07-13T00:04:24;18.00;99.90
30764;DHT22;17497;51.476;7.770;2023-07-13T00:06:53;18.00;99.90
30764;DHT22;17497;51.476;7.770;2023-07-13T00:09:21;17.90;99.90
30764;DHT22;17497;51.476;7.770;2023-07-13T00:11:54;17.80;99.90
30764;DHT22;17497;51.476;7.770;2023-07-13T00:14:21;17.80;99.90
30764;DHT22;17497;51.476;7.770;2023-07-13T00:16:48;17.70;99.90
30764;DHT22;17497;51.476;7.770;2023-07-13T00:19:16;17.60;99.90
30764;DHT22;17497;51.476;7.770;2023-07-13T00:21:43;17.60;99.90
30764;DHT22;17497;51.476;7.770;2023-07-13T00:24:12;17.60;99.90
30764;DHT22;17497;51.476;7.770;2023-07-13T00:26:42;17.60;99.90
30764;DHT22;17497;51.476;7.770;2023-07-13T00:29:12;17.60;99.90
30764;DHT22;17497;51.476;7.770;2023-07-13T00:31:40;17.50;99.90
30764;DHT22;17497;51.476;7.770;2023-07-13T00:34:07;17.50;99.90
30764;DHT22;17497;51.476;7.770;2023-07-13T00:36:34;17.40;99.90
30764;DHT22;17497;51.476;7.770;2023-07-13T00:39:01;17.30;99.90
30764;DHT22;17497;51.476;7.770;2023-07-13T00:41:28;17.30;99.90
30764;DHT22;17497;51.476;7.770;2023-07-13T00:43:55;17.20;99.90
30764;DHT22;17497;51.476;7.770;2023-07-13T00:46:27;17.20;99.90
30764;DHT22;17497;51.476;7.770;2023-07-13T00:48:58;17.20;99.90
30764;DHT22;17497;51.476;7.770;2023-07-13T00:51:46;17.20;99.90
30764;DHT22;17497;51.476;7.770;2023-07-13T00:54:24;17.10;99.90
30764;DHT22;17497;51.476;7.770;2023-07-13T00:56:53;17.10;99.90
30764;DHT22;17497;51.476;7.770;2023-07-13T00:59:22;17.00;99.90
30764;DHT22;17497;51.476;7.770;2023-07-13T01:01:49;17.00;99.90
30764;DHT22;17497;51.476;7.770;2023-07-13T01:04:17;17.00;99.90
30764;DHT22;17497;51.476;7.770;2023-07-13T01:06:45;17.00;99.90
30764;DHT22;17497;51.476;7.770;2023-07-13T01:09:15;17.00;99.90
30764;DHT22;17497;51.476;7.770;2023-07-13T01:11:42;16.90;99.90
30764;DHT22;17497;51.476;7.770;2023-07-13T01:14:09;16.90;99.90
30764;DHT22;17497;51.476;7.770;2023-07-13T01:16:37;16.90;99.90
30764;DHT22;17497;51.476;7.770;2023-07-13T01:21:51;16.90;99.90
30764;DHT22;17497;51.476;7.770;2023-07-13T01:24:18;16.80;99.90
30764;DHT22;17497;51.476;7.770;2023-07-13T01:26:45;16.80;99.90
30764;DHT22;17497;51.476;7.770;2023-07-13T01:29:12;16.80;99.90
30764;DHT22;17497;51.476;7.770;2023-07-13T01:31:39;16.80;99.90
30764;DHT22;17497;51.476;7.770;2023-07-13T01:34:05;16.80;99.90
30764;DHT22;17497;51.476;7.770;2023-07-13T01:36:32;16.80;99.90
30764;DHT22;17497;51.476;7.770;2023-07-13T01:39:00;16.70;99.90
30764;DHT22;17497;51.476;7.770;2023-07-13T01:41:27;16.80;99.90
30764;DHT22;17497;51.476;7.770;2023-07-13T01:43:54;16.70;99.90
30764;DHT22;17497;51.476;7.770;2023-07-13T01:46:21;16.70;99.90
30764;DHT22;17497;51.476;7.770;2023-07-13T01:48:50;16.70;99.90
30764;DHT22;17497;51.476;7.770;2023-07-13T01:51:18;16.60;99.90
30764;DHT22;17497;51.476;7.770;2023-07-13T01:53:45;16.60;99.90
30764;DHT22;17497;51.476;7.770;2023-07-13T01:56:12;16.60;99.90
30764;DHT22;17497;51.476;7.770;2023-07-13T01:58:41;16.60;99.90
30764;DHT22;17497;51.476;7.770;2023-07-13T02:01:08;16.50;99.90
30764;DHT22;17497;51.476;7.770;2023-07-13T02:03:35;16.60;99.90
30764;DHT22;17497;51.476;7.770;2023-07-13T02:06:02;16.50;99.90
30764;DHT22;17497;51.476;7.770;2023-07-13T02:08:30;16.50;99.90
30764;DHT22;17497;51.476;7.770;2023-07-13T02:10:57;16.50;99.90
30764;DHT22;17497;51.476;7.770;2023-07-13T02:13:24;16.40;99.90
30764;DHT22;17497;51.476;7.770;2023-07-13T02:15:51;16.30;99.90
30764;DHT22;17497;51.476;7.770;2023-07-13T02:18:18;16.30;99.90
30764;DHT22;17497;51.476;7.770;2023-07-13T02:20:45;16.30;99.90
30764;DHT22;17497;51.476;7.770;2023-07-13T02:23:12;16.30;99.90
30764;DHT22;17497;51.476;7.770;2023-07-13T02:25:39;16.30;99.90
30764;DHT22;17497;51.476;7.770;2023-07-13T02:28:06;16.30;99.90
30764;DHT22;17497;51.476;7.770;2023-07-13T02:30:34;16.30;99.90
30764;DHT22;17497;51.476;7.770;2023-07-13T02:33:01;16.30;99.90
30764;DHT22;17497;51.476;7.770;2023-07-13T02:35:28;16.30;99.90
30764;DHT22;17497;51.476;7.770;2023-07-13T02:37:55;16.30;99.90
30764;DHT22;17497;51.476;7.770;2023-07-13T02:40:22;16.20;99.90
30764;DHT22;17497;51.476;7.770;2023-07-13T02:42:49;16.20;99.90
30764;DHT22;17497;51.476;7.770;2023-07-13T02:45:15;16.20;99.90
30764;DHT22;17497;51.476;7.770;2023-07-13T02:47:43;16.20;99.90
30764;DHT22;17497;51.476;7.770;2023-07-13T02:50:10;16.20;99.90
30764;DHT22;17497;51.476;7.770;2023-07-13T02:52:37;16.20;99.90
30764;DHT22;17497;51.476;7.770;2023-07-13T02:55:04;16.10;99.90
30764;DHT22;17497;51.476;7.770;2023-07-13T02:57:31;16.00;99.90
30764;DHT22;17497;51.476;7.770;2023-07-13T03:00:00;16.00;99.90
30764;DHT22;17497;51.476;7.770;2023-07-13T03:02:27;15.90;99.90
30764;DHT22;17497;51.476;7.770;2023-07-13T03:04:55;15.90;99.90
30764;DHT22;17497;51.476;7.770;2023-07-13T03:07:22;15.90;99.90
30764;DHT22;17497;51.476;7.770;2023-07-13T03:09:48;15.90;99.90
30764;DHT22;17497;51.476;7.770;2023-07-13T03:12:15;15.90;99.90
30764;DHT22;17497;51.476;7.770;2023-07-13T03:14:42;15.80;99.90
30764;DHT22;17497;51.476;7.770;2023-07-13T03:17:09;15.80;99.90
30764;DHT22;17497;51.476;7.770;2023-07-13T03:19:35;15.80;99.90
30764;DHT22;17497;51.476;7.770;2023-07-13T03:22:02;15.80;99.90
30764;DHT22;17497;51.476;7.770;2023-07-13T03:24:29;15.80;99.90
30764;DHT22;17497;51.476;7.770;2023-07-13T03:26:56;15.70;99.90
30764;DHT22;17497;51.476;7.770;2023-07-13T03:29:23;15.70;99.90
30764;DHT22;17497;51.476;7.770;2023-07-13T03:31:49;15.70;99.90
30764;DHT22;17497;51.476;7.770;2023-07-13T03:34:16;15.70;99.90
30764;DHT22;17497;51.476;7.770;2023-07-13T03:36:43;15.70;99.90
30764;DHT22;17497;51.476;7.770;2023-07-13T03:39:10;15.70;99.90
30764;DHT22;17497;51.476;7.770;2023-07-13T03:41:37;15.70;99.90
30764;DHT22;17497;51.476;7.770;2023-07-13T03:44:04;15.70;99.90
30764;DHT22;17497;51.476;7.770;2023-07-13T03:46:31;15.70;99.90
30764;DHT22;17497;51.476;7.770;2023-07-13T03:48:58;15.70;99.90
30764;DHT22;17497;51.476;7.770;2023-07-13T03:51:24;15.60;99.90
30764;DHT22;17497;51.476;7.770;2023-07-13T03:53:51;15.60;99.90
30764;DHT22;17497;51.476;7.770;2023-07-13T03:56:19;15.60;99.90
30764;DHT22;17497;51.476;7.770;2023-07-13T03:58:47;15.60;99.90
30764;DHT22;17497;51.476;7.770;2023-07-13T04:01:16;15.60;99.90
30764;DHT22;17497;51.476;7.770;2023-07-13T04:03:44;15.60;99.90
30764;DHT22;17497;51.476;7.770;2023-07-13T04:06:21;15.60;99.90
30764;DHT22;17497;51.476;7.770;2023-07-13T04:08:53;15.60;99.90
30764;DHT22;17497;51.476;7.770;2023-07-13T04:11:23;15.60;99.90
30764;DHT22;17497;51.476;7.770;2023-07-13T04:13:50;15.60;99.90
30764;DHT22;17497;51.476;7.770;2023-07-13T04:16:18;15.60;99.90
30764;DHT22;17497;51.476;7.770;2023-07-13T04:18:46;15.60;99.90
30764;DHT22;17497;51.476;7.770;2023-07-13T04:21:14;15.60;99.90
30764;DHT22;17497;51.476;7.770;2023-07-13T04:23:41;15.60;99.90
30764;DHT22;17497;51.476;7.770;2023-07-13T04:26:08;15.50;99.90
30764;DHT22;17497;51.476;7.770;2023-07-13T04:28:36;15.60;99.90
30764;DHT22;17497;51.476;7.770;2023-07-13T04:31:03;15.60;99.90
30764;DHT22;17497;51.476;7.770;2023-07-13T04:33:30;15.60;99.90
30764;DHT22;17497;51.476;7.770;2023-07-13T04:35:57;15.50;99.90
30764;DHT22;17497;51.476;7.770;2023-07-13T04:38:30;15.50;99.90
30764;DHT22;17497;51.476;7.770;2023-07-13T04:41:01;15.50;99.90
30764;DHT22;17497;51.476;7.770;2023-07-13T04:43:29;15.50;99.90
30764;DHT22;17497;51.476;7.770;2023-07-13T04:45:56;15.40;99.90
30764;DHT22;17497;51.476;7.770;2023-07-13T04:48:24;15.40;99.90
30764;DHT22;17497;51.476;7.770;2023-07-13T04:50:56;15.40;99.90
30764;DHT22;17497;51.476;7.770;2023-07-13T04:53:23;15.40;99.90
30764;DHT22;17497;51.476;7.770;2023-07-13T04:55:50;15.40;99.90
30764;DHT22;17497;51.476;7.770;2023-07-13T04:58:17;15.50;99.90
30764;DHT22;17497;51.476;7.770;2023-07-13T05:00:44;15.50;99.90
30764;DHT22;17497;51.476;7.770;2023-07-13T05:03:11;15.60;99.90
30764;DHT22;17497;51.476;7.770;2023-07-13T05:05:38;15.70;99.90
30764;DHT22;17497;51.476;7.770;2023-07-13T05:08:05;15.70;99.90
30764;DHT22;17497;51.476;7.770;2023-07-13T05:10:35;15.70;99.90
30764;DHT22;17497;51.476;7.770;2023-07-13T05:13:02;15.70;99.90
30764;DHT22;17497;51.476;7.770;2023-07-13T05:15:29;15.80;99.90
30764;DHT22;17497;51.476;7.770;2023-07-13T05:17:56;15.80;99.90
30764;DHT22;17497;51.476;7.770;2023-07-13T05:20:23;15.80;99.90
30764;DHT22;17497;51.476;7.770;2023-07-13T05:22:50;15.80;99.90
30764;DHT22;17497;51.476;7.770;2023-07-13T05:25:17;15.80;99.90
30764;DHT22;17497;51.476;7.770;2023-07-13T05:27:44;15.80;99.90
30764;DHT22;17497;51.476;7.770;2023-07-13T05:30:13;15.80;99.90
30764;DHT22;17497;51.476;7.770;2023-07-13T05:32:41;15.90;99.90
30764;DHT22;17497;51.476;7.770;2023-07-13T05:35:08;15.90;99.90
30764;DHT22;17497;51.476;7.770;2023-07-13T05:37:36;16.00;99.90
30764;DHT22;17497;51.476;7.770;2023-07-13T05:40:04;16.00;99.90
30764;DHT22;17497;51.476;7.770;2023-07-13T05:42:30;16.10;99.90
30764;DHT22;17497;51.476;7.770;2023-07-13T05:44:57;16.20;99.90
30764;DHT22;17497;51.476;7.770;2023-07-13T05:47:24;16.20;99.90
30764;DHT22;17497;51.476;7.770;2023-07-13T05:49:51;16.30;99.90
30764;DHT22;17497;51.476;7.770;2023-07-13T05:52:18;16.30;99.90
30764;DHT22;17497;51.476;7.770;2023-07-13T05:54:45;16.30;99.90
30764;DHT22;17497;51.476;7.770;2023-07-13T05:57:12;16.30;99.90
30764;DHT22;17497;51.476;7.770;2023-07-13T05:59:39;16.40;99.90
30764;DHT22;17497;51.476;7.770;2023-07-13T06:02:09;16.40;99.90
30764;DHT22;17497;51.476;7.770;2023-07-13T06:04:36;16.40;99.90
30764;DHT22;17497;51.476;7.770;2023-07-13T06:07:03;16.50;99.90
30764;DHT22;17497;51.476;7.770;2023-07-13T06:09:30;16.60;99.90
30764;DHT22;17497;51.476;7.770;2023-07-13T06:11:57;16.60;99.90
30764;DHT22;17497;51.476;7.770;2023-07-13T06:14:24;16.70;99.90
30764;DHT22;17497;51.476;7.770;2023-07-13T06:16:51;16.80;99.90
30764;DHT22;17497;51.476;7.770;2023-07-13T06:19:18;16.90;99.90
30764;DHT22;17497;51.476;7.770;2023-07-13T06:21:45;16.80;99.90
30764;DHT22;17497;51.476;7.770;2023-07-13T06:24:11;16.80;99.90
30764;DHT22;17497;51.476;7.770;2023-07-13T06:26:38;16.70;99.90
30764;DHT22;17497;51.476;7.770;2023-07-13T06:29:05;16.70;99.90
30764;DHT22;17497;51.476;7.770;2023-07-13T06:31:32;16.70;99.90
30764;DHT22;17497;51.476;7.770;2023-07-13T06:33:59;16.70;99.90
30764;DHT22;17497;51.476;7.770;2023-07-13T06:36:26;16.70;99.90
30764;DHT22;17497;51.476;7.770;2023-07-13T06:38:53;16.80;99.90
30764;DHT22;17497;51.476;7.770;2023-07-13T06:41:19;16.90;99.90
30764;DHT22;17497;51.476;7.770;2023-07-13T06:43:46;16.90;99.90
30764;DHT22;17497;51.476;7.770;2023-07-13T06:46:13;17.00;99.90
30764;DHT22;17497;51.476;7.770;2023-07-13T06:48:42;17.10;99.90
30764;DHT22;17497;51.476;7.770;2023-07-13T06:51:09;17.20;99.90
30764;DHT22;17497;51.476;7.770;2023-07-13T06:53:36;17.10;99.90
30764;DHT22;17497;51.476;7.770;2023-07-13T06:56:04;17.10;99.90
30764;DHT22;17497;51.476;7.770;2023-07-13T06:58:33;17.10;99.90
30764;DHT22;17497;51.476;7.770;2023-07-13T07:01:00;17.10;99.90
30764;DHT22;17497;51.476;7.770;2023-07-13T07:03:27;17.10;99.90
30764;DHT22;17497;51.476;7.770;2023-07-13T07:09:06;17.20;99.90
30764;DHT22;17497;51.476;7.770;2023-07-13T07:11:32;17.30;99.90
30764;DHT22;17497;51.476;7.770;2023-07-13T07:13:59;17.40;99.90
30764;DHT22;17497;51.476;7.770;2023-07-13T07:16:26;17.50;99.90
30764;DHT22;17497;51.476;7.770;2023-07-13T07:18:53;17.60;99.90
30764;DHT22;17497;51.476;7.770;2023-07-13T07:21:20;17.80;99.90
30764;DHT22;17497;51.476;7.770;2023-07-13T07:23:49;17.90;99.90
30764;DHT22;17497;51.476;7.770;2023-07-13T07:26:16;17.90;99.90
30764;DHT22;17497;51.476;7.770;2023-07-13T07:28:43;17.90;99.90
30764;DHT22;17497;51.476;7.770;2023-07-13T07:31:14;17.90;99.90
30764;DHT22;17497;51.476;7.770;2023-07-13T07:33:44;17.80;99.90
30764;DHT22;17497;51.476;7.770;2023-07-13T07:36:11;17.80;99.90
30764;DHT22;17497;51.476;7.770;2023-07-13T07:38:41;17.90;99.90
30764;DHT22;17497;51.476;7.770;2023-07-13T07:41:08;18.00;99.90
30764;DHT22;17497;51.476;7.770;2023-07-13T07:43:38;18.10;99.90
30764;DHT22;17497;51.476;7.770;2023-07-13T07:46:05;18.10;99.90
30764;DHT22;17497;51.476;7.770;2023-07-13T07:48:32;18.10;99.90
30764;DHT22;17497;51.476;7.770;2023-07-13T07:50:58;18.10;99.90
30764;DHT22;17497;51.476;7.770;2023-07-13T07:53:25;18.10;99.90
30764;DHT22;17497;51.476;7.770;2023-07-13T07:55:52;18.20;99.90
30764;DHT22;17497;51.476;7.770;2023-07-13T07:58:22;18.30;99.90
30764;DHT22;17497;51.476;7.770;2023-07-13T08:00:52;18.20;99.90
30764;DHT22;17497;51.476;7.770;2023-07-13T08:03:21;18.20;99.90
30764;DHT22;17497;51.476;7.770;2023-07-13T08:05:54;18.30;99.90
30764;DHT22;17497;51.476;7.770;2023-07-13T08:08:24;18.30;99.90
30764;DHT22;17497;51.476;7.770;2023-07-13T08:10:52;18.30;99.90
30764;DHT22;17497;51.476;7.770;2023-07-13T08:13:25;18.20;99.90
30764;DHT22;17497;51.476;7.770;2023-07-13T08:15:52;18.30;99.90
30764;DHT22;17497;51.476;7.770;2023-07-13T08:18:19;18.20;99.90
30764;DHT22;17497;51.476;7.770;2023-07-13T08:20:46;18.30;99.90
30764;DHT22;17497;51.476;7.770;2023-07-13T08:23:13;18.50;99.90
30764;DHT22;17497;51.476;7.770;2023-07-13T08:25:40;18.60;99.90
30764;DHT22;17497;51.476;7.770;2023-07-13T08:28:07;18.70;99.90
30764;DHT22;17497;51.476;7.770;2023-07-13T08:30:34;18.80;99.90
30764;DHT22;17497;51.476;7.770;2023-07-13T08:33:03;18.90;99.90
30764;DHT22;17497;51.476;7.770;2023-07-13T08:35:30;19.00;99.90
30764;DHT22;17497;51.476;7.770;2023-07-13T08:37:57;19.00;99.90
30764;DHT22;17497;51.476;7.770;2023-07-13T08:40:27;19.00;99.90
30764;DHT22;17497;51.476;7.770;2023-07-13T08:42:56;18.90;99.90
30764;DHT22;17497;51.476;7.770;2023-07-13T08:45:30;18.90;99.90
30764;DHT22;17497;51.476;7.770;2023-07-13T08:48:05;18.80;99.90
30764;DHT22;17497;51.476;7.770;2023-07-13T08:50:38;18.90;99.90
30764;DHT22;17497;51.476;7.770;2023-07-13T08:53:33;19.10;99.90
30764;DHT22;17497;51.476;7.770;2023-07-13T08:56:02;19.20;99.90
30764;DHT22;17497;51.476;7.770;2023-07-13T08:58:31;19.10;99.90
30764;DHT22;17497;51.476;7.770;2023-07-13T09:01:51;19.20;99.90
30764;DHT22;17497;51.476;7.770;2023-07-13T09:04:11;19.30;99.90
30764;DHT22;17497;51.476;7.770;2023-07-13T09:09:41;19.50;99.90
30764;DHT22;17497;51.476;7.770;2023-07-13T09:15:02;19.60;99.90
30764;DHT22;17497;51.476;7.770;2023-07-13T09:17:43;19.60;99.90
30764;DHT22;17497;51.476;7.770;2023-07-13T09:20:39;19.60;99.90
30764;DHT22;17497;51.476;7.770;2023-07-13T09:23:14;19.70;99.90
30764;DHT22;17497;51.476;7.770;2023-07-13T09:25:42;19.60;99.90
30764;DHT22;17497;51.476;7.770;2023-07-13T09:28:26;19.60;99.90
30764;DHT22;17497;51.476;7.770;2023-07-13T09:33:30;19.80;99.90
30764;DHT22;17497;51.476;7.770;2023-07-13T09:35:58;19.90;99.90
30764;DHT22;17497;51.476;7.770;2023-07-13T09:41:40;19.80;99.90
30764;DHT22;17497;51.476;7.770;2023-07-13T09:44:16;19.70;99.90
30764;DHT22;17497;51.476;7.770;2023-07-13T09:46:47;19.60;99.90
30764;DHT22;17497;51.476;7.770;2023-07-13T09:49:22;19.50;99.90
30764;DHT22;17497;51.476;7.770;2023-07-13T09:52:04;19.50;99.90
30764;DHT22;17497;51.476;7.770;2023-07-13T09:54:36;19.40;99.90
30764;DHT22;17497;51.476;7.770;2023-07-13T09:57:13;19.50;99.90
30764;DHT22;17497;51.476;7.770;2023-07-13T09:59:44;19.40;99.90
30764;DHT22;17497;51.476;7.770;2023-07-13T10:02:34;19.50;99.90
30764;DHT22;17497;51.476;7.770;2023-07-13T10:07:34;19.90;99.90
30764;DHT22;17497;51.476;7.770;2023-07-13T10:10:14;20.10;99.90
30764;DHT22;17497;51.476;7.770;2023-07-13T10:12:41;20.40;99.90
30764;DHT22;17497;51.476;7.770;2023-07-13T10:15:17;20.70;99.90
30764;DHT22;17497;51.476;7.770;2023-07-13T10:17:52;21.00;99.90
30764;DHT22;17497;51.476;7.770;2023-07-13T10:20:20;21.10;99.90
30764;DHT22;17497;51.476;7.770;2023-07-13T10:25:25;21.50;99.90
30764;DHT22;17497;51.476;7.770;2023-07-13T10:27:56;21.40;99.90
30764;DHT22;17497;51.476;7.770;2023-07-13T10:30:28;21.20;99.90
30764;DHT22;17497;51.476;7.770;2023-07-13T10:33:02;21.20;99.90
30764;DHT22;17497;51.476;7.770;2023-07-13T10:35:30;21.30;99.90
30764;DHT22;17497;51.476;7.770;2023-07-13T10:38:11;21.70;99.90
30764;DHT22;17497;51.476;7.770;2023-07-13T10:40:48;21.90;99.90
30764;DHT22;17497;51.476;7.770;2023-07-13T10:43:25;22.00;99.90
30764;DHT22;17497;51.476;7.770;2023-07-13T10:45:54;22.10;99.90
30764;DHT22;17497;51.476;7.770;2023-07-13T10:48:23;22.30;99.90
30764;DHT22;17497;51.476;7.770;2023-07-13T10:50:52;22.50;99.90
30764;DHT22;17497;51.476;7.770;2023-07-13T10:53:31;22.30;99.90
30764;DHT22;17497;51.476;7.770;2023-07-13T10:56:18;22.00;99.90
30764;DHT22;17497;51.476;7.770;2023-07-13T10:58:47;21.90;99.90
30764;DHT22;17497;51.476;7.770;2023-07-13T11:01:40;21.90;99.90
30764;DHT22;17497;51.476;7.770;2023-07-13T11:04:11;21.90;99.90
30764;DHT22;17497;51.476;7.770;2023-07-13T11:06:41;21.60;99.90
30764;DHT22;17497;51.476;7.770;2023-07-13T11:09:40;21.40;99.90
30764;DHT22;17497;51.476;7.770;2023-07-13T11:14:43;21.30;99.90
30764;DHT22;17497;51.476;7.770;2023-07-13T11:28:23;22.40;99.90
30764;DHT22;17497;51.476;7.770;2023-07-13T11:33:25;23.20;99.90
30764;DHT22;17497;51.476;7.770;2023-07-13T11:36:02;23.20;99.90
30764;DHT22;17497;51.476;7.770;2023-07-13T11:38:40;22.90;99.90
30764;DHT22;17497;51.476;7.770;2023-07-13T11:41:18;23.00;99.90
30764;DHT22;17497;51.476;7.770;2023-07-13T11:43:48;22.90;99.90
30764;DHT22;17497;51.476;7.770;2023-07-13T11:46:20;22.70;99.90
30764;DHT22;17497;51.476;7.770;2023-07-13T11:48:50;22.70;99.90
30764;DHT22;17497;51.476;7.770;2023-07-13T11:51:29;22.40;99.90
30764;DHT22;17497;51.476;7.770;2023-07-13T11:54:01;22.00;99.90
30764;DHT22;17497;51.476;7.770;2023-07-13T11:56:30;21.70;99.90
30764;DHT22;17497;51.476;7.770;2023-07-13T11:59:05;21.50;99.90
30764;DHT22;17497;51.476;7.770;2023-07-13T12:01:42;21.30;99.90
30764;DHT22;17497;51.476;7.770;2023-07-13T12:04:21;21.30;99.90
30764;DHT22;17497;51.476;7.770;2023-07-13T12:06:56;21.60;99.90
30764;DHT22;17497;51.476;7.770;2023-07-13T12:09:27;22.20;99.90
30764;DHT22;17497;51.476;7.770;2023-07-13T12:11:57;22.80;99.90
30764;DHT22;17497;51.476;7.770;2023-07-13T12:14:26;23.20;99.90
30764;DHT22;17497;51.476;7.770;2023-07-13T12:16:55;23.20;99.90
30764;DHT22;17497;51.476;7.770;2023-07-13T12:19:25;23.00;99.90
30764;DHT22;17497;51.476;7.770;2023-07-13T12:21:56;22.80;99.90
30764;DHT22;17497;51.476;7.770;2023-07-13T12:24:24;22.60;99.90
30764;DHT22;17497;51.476;7.770;2023-07-13T12:27:00;23.00;99.90
30764;DHT22;17497;51.476;7.770;2023-07-13T12:29:28;23.50;99.90
30764;DHT22;17497;51.476;7.770;2023-07-13T12:31:55;23.60;99.90
30764;DHT22;17497;51.476;7.770;2023-07-13T12:34:25;23.80;99.90
30764;DHT22;17497;51.476;7.770;2023-07-13T12:37:00;24.20;99.90
30764;DHT22;17497;51.476;7.770;2023-07-13T12:39:43;24.70;99.90
30764;DHT22;17497;51.476;7.770;2023-07-13T12:42:26;24.80;99.90
30764;DHT22;17497;51.476;7.770;2023-07-13T12:45:05;24.90;99.90
30764;DHT22;17497;51.476;7.770;2023-07-13T12:47:41;25.00;98.70
30764;DHT22;17497;51.476;7.770;2023-07-13T12:50:16;24.80;99.30
30764;DHT22;17497;51.476;7.770;2023-07-13T12:52:44;24.90;98.50
30764;DHT22;17497;51.476;7.770;2023-07-13T12:55:13;25.10;99.40
30764;DHT22;17497;51.476;7.770;2023-07-13T13:00:32;24.90;97.60
30764;DHT22;17497;51.476;7.770;2023-07-13T13:03:35;25.20;99.80
30764;DHT22;17497;51.476;7.770;2023-07-13T13:08:42;25.90;95.80
30764;DHT22;17497;51.476;7.770;2023-07-13T13:11:10;26.30;92.20
30764;DHT22;17497;51.476;7.770;2023-07-13T13:13:37;26.80;93.60
30764;DHT22;17497;51.476;7.770;2023-07-13T13:18:53;27.30;90.30
30764;DHT22;17497;51.476;7.770;2023-07-13T13:21:21;27.40;89.90
30764;DHT22;17497;51.476;7.770;2023-07-13T13:23:48;27.60;84.70
30764;DHT22;17497;51.476;7.770;2023-07-13T13:26:16;27.30;84.00
30764;DHT22;17497;51.476;7.770;2023-07-13T13:28:44;27.70;84.30
30764;DHT22;17497;51.476;7.770;2023-07-13T13:31:12;27.70;84.10
30764;DHT22;17497;51.476;7.770;2023-07-13T13:33:41;28.00;80.90
30764;DHT22;17497;51.476;7.770;2023-07-13T13:36:15;27.60;80.70
30764;DHT22;17497;51.476;7.770;2023-07-13T13:38:43;26.70;83.90
30764;DHT22;17497;51.476;7.770;2023-07-13T13:41:12;26.40;88.00
30764;DHT22;17497;51.476;7.770;2023-07-13T13:43:40;26.50;85.60
30764;DHT22;17497;51.476;7.770;2023-07-13T13:46:17;27.00;83.40
30764;DHT22;17497;51.476;7.770;2023-07-13T13:48:45;27.60;82.60
30764;DHT22;17497;51.476;7.770;2023-07-13T13:51:22;27.70;78.60
30764;DHT22;17497;51.476;7.770;2023-07-13T13:53:51;28.30;81.40
30764;DHT22;17497;51.476;7.770;2023-07-13T13:56:20;28.10;75.60
30764;DHT22;17497;51.476;7.770;2023-07-13T13:58:47;27.70;77.60
30764;DHT22;17497;51.476;7.770;2023-07-13T14:01:20;27.70;77.20
30764;DHT22;17497;51.476;7.770;2023-07-13T14:03:49;27.60;79.70
30764;DHT22;17497;51.476;7.770;2023-07-13T14:06:18;28.00;79.90
30764;DHT22;17497;51.476;7.770;2023-07-13T14:08:44;27.50;76.90
30764;DHT22;17497;51.476;7.770;2023-07-13T14:11:13;26.50;80.20
30764;DHT22;17497;51.476;7.770;2023-07-13T14:13:43;25.90;84.80
30764;DHT22;17497;51.476;7.770;2023-07-13T14:16:13;24.80;90.50
30764;DHT22;17497;51.476;7.770;2023-07-13T14:18:41;23.20;99.90
30764;DHT22;17497;51.476;7.770;2023-07-13T14:21:13;22.00;99.90
30764;DHT22;17497;51.476;7.770;2023-07-13T14:23:41;20.90;99.90
30764;DHT22;17497;51.476;7.770;2023-07-13T14:26:14;20.20;99.90
30764;DHT22;17497;51.476;7.770;2023-07-13T14:28:43;19.70;99.90
30764;DHT22;17497;51.476;7.770;2023-07-13T14:31:13;19.10;99.90
30764;DHT22;17497;51.476;7.770;2023-07-13T14:33:40;18.80;99.90
30764;DHT22;17497;51.476;7.770;2023-07-13T14:36:33;18.60;99.90
30764;DHT22;17497;51.476;7.770;2023-07-13T14:39:05;18.60;99.90
30764;DHT22;17497;51.476;7.770;2023-07-13T14:41:36;18.70;99.90
30764;DHT22;17497;51.476;7.770;2023-07-13T14:44:15;18.70;99.90
30764;DHT22;17497;51.476;7.770;2023-07-13T14:46:43;18.90;99.90
30764;DHT22;17497;51.476;7.770;2023-07-13T14:49:27;19.10;99.90
30764;DHT22;17497;51.476;7.770;2023-07-13T14:51:57;19.30;99.90
30764;DHT22;17497;51.476;7.770;2023-07-13T14:54:24;19.50;99.90
30764;DHT22;17497;51.476;7.770;2023-07-13T14:59:26;20.40;99.90
30764;DHT22;17497;51.476;7.770;2023-07-13T15:01:53;21.00;99.90
30764;DHT22;17497;51.476;7.770;2023-07-13T15:04:21;21.60;99.90
30764;DHT22;17497;51.476;7.770;2023-07-13T15:06:54;22.60;99.90
30764;DHT22;17497;51.476;7.770;2023-07-13T15:09:21;23.40;99.90
30764;DHT22;17497;51.476;7.770;2023-07-13T15:11:48;23.70;99.90
30764;DHT22;17497;51.476;7.770;2023-07-13T15:14:14;23.50;99.90
30764;DHT22;17497;51.476;7.770;2023-07-13T15:16:41;23.30;99.90
30764;DHT22;17497;51.476;7.770;2023-07-13T15:19:10;22.70;99.90
30764;DHT22;17497;51.476;7.770;2023-07-13T15:21:37;22.20;99.90
30764;DHT22;17497;51.476;7.770;2023-07-13T15:24:04;21.70;99.90
30764;DHT22;17497;51.476;7.770;2023-07-13T15:26:34;21.20;99.90
30764;DHT22;17497;51.476;7.770;2023-07-13T15:29:02;20.70;99.90
30764;DHT22;17497;51.476;7.770;2023-07-13T15:31:29;20.50;99.90
30764;DHT22;17497;51.476;7.770;2023-07-13T15:33:59;20.20;99.90
30764;DHT22;17497;51.476;7.770;2023-07-13T15:36:26;20.00;99.90
30764;DHT22;17497;51.476;7.770;2023-07-13T15:38:55;19.80;99.90
30764;DHT22;17497;51.476;7.770;2023-07-13T15:41:28;19.70;99.90
30764;DHT22;17497;51.476;7.770;2023-07-13T15:43:56;19.70;99.90
30764;DHT22;17497;51.476;7.770;2023-07-13T15:46:27;19.80;99.90
30764;DHT22;17497;51.476;7.770;2023-07-13T15:48:57;20.10;99.90
30764;DHT22;17497;51.476;7.770;2023-07-13T15:53:54;21.90;99.90
30764;DHT22;17497;51.476;7.770;2023-07-13T15:56:28;23.20;99.90
30764;DHT22;17497;51.476;7.770;2023-07-13T15:58:56;24.50;99.90
30764;DHT22;17497;51.476;7.770;2023-07-13T16:01:26;25.20;99.90
30764;DHT22;17497;51.476;7.770;2023-07-13T16:03:54;25.30;99.90
30764;DHT22;17497;51.476;7.770;2023-07-13T16:06:24;25.80;99.90
30764;DHT22;17497;51.476;7.770;2023-07-13T16:08:53;26.20;99.90
30764;DHT22;17497;51.476;7.770;2023-07-13T16:11:23;26.50;99.90
30764;DHT22;17497;51.476;7.770;2023-07-13T16:13:51;26.80;99.90
30764;DHT22;17497;51.476;7.770;2023-07-13T16:16:32;27.20;99.90
30764;DHT22;17497;51.476;7.770;2023-07-13T16:19:02;27.10;99.90
30764;DHT22;17497;51.476;7.770;2023-07-13T16:21:33;26.50;99.90
30764;DHT22;17497;51.476;7.770;2023-07-13T16:24:01;26.10;99.90
30764;DHT22;17497;51.476;7.770;2023-07-13T16:26:34;25.50;99.90
30764;DHT22;17497;51.476;7.770;2023-07-13T16:29:20;24.90;99.90
30764;DHT22;17497;51.476;7.770;2023-07-13T16:32:14;24.00;99.90
30764;DHT22;17497;51.476;7.770;2023-07-13T16:34:43;23.30;99.90
30764;DHT22;17497;51.476;7.770;2023-07-13T16:37:19;22.80;99.90
30764;DHT22;17497;51.476;7.770;2023-07-13T16:39:49;22.30;99.90